Time;durP1;ratioP1;P1;durP2;ratioP2;P2;SDS_P1;SDS_P2;PMS_P1;PMS_P2;Temp;Humidity;BMP_temperature;BMP_pressure;BME280_temperature;BME280_humidity;BME280_pressure;Samples;Min_cycle;Max_cycle;Signal;HPM_P1;HPM_P2
2022/05/01 00:01:38;;;;;;;6.78;5.53;;;;;;;9.10;57.45;96924.69;1724233;82;21054;-85
2022/05/01 00:04:04;;;;;;;6.83;6.12;;;;;;;9.06;57.59;96925.50;1741980;82;20977;-85
2022/05/01 00:06:33;;;;;;;6.17;5.17;;;;;;;9.03;57.82;96931.81;1737970;82;21356;-85
2022/05/01 00:08:58;;;;;;;5.62;5.03;;;;;;;9.00;57.95;96924.84;1734160;82;21052;-85
2022/05/01 00:11:24;;;;;;;8.05;5.58;;;;;;;8.97;58.09;96924.69;1734323;82;21000;-85
2022/05/01 00:13:50;;;;;;;6.47;5.20;;;;;;;8.95;58.34;96917.55;1734972;82;20944;-85
2022/05/01 00:16:16;;;;;;;5.80;5.20;;;;;;;8.95;58.38;96918.04;1721114;82;20972;-84
2022/05/01 00:18:41;;;;;;;7.25;5.53;;;;;;;8.93;59.12;96919.47;1739949;82;21379;-85
2022/05/01 00:21:07;;;;;;;5.53;4.95;;;;;;;8.92;59.33;96917.03;1739921;82;21027;-85
2022/05/01 00:23:33;;;;;;;7.15;5.28;;;;;;;8.90;59.35;96921.57;1739931;82;21019;-84
2022/05/01 00:25:59;;;;;;;6.47;5.80;;;;;;;8.88;59.27;96919.14;1739632;82;21307;-85
2022/05/01 00:28:25;;;;;;;8.50;5.80;;;;;;;8.86;59.29;96919.78;1738564;81;21035;-85
2022/05/01 00:30:51;;;;;;;6.85;5.62;;;;;;;8.85;59.57;96914.27;1737371;80;20975;-84
2022/05/01 00:38:45;;;;;;;7.70;6.03;;;;;;;8.79;59.44;96909.73;1712643;83;21390;-84
2022/05/01 00:41:14;;;;;;;6.87;5.83;;;;;;;8.79;59.09;96913.63;1712737;83;21035;-85
2022/05/01 00:44:08;;;;;;;6.92;5.72;;;;;;;8.78;60.17;96902.91;1712484;83;21036;-84
2022/05/01 00:46:41;;;;;;;7.42;5.67;;;;;;;8.76;60.03;96905.33;1712647;83;21333;-85
2022/05/01 00:49:09;;;;;;;7.08;5.67;;;;;;;8.72;59.77;96905.65;1731075;82;21390;-85
2022/05/01 00:51:42;;;;;;;8.13;5.55;;;;;;;8.72;59.46;96902.25;1755983;82;21082;-84
2022/05/01 00:54:08;;;;;;;7.83;5.42;;;;;;;8.71;59.85;96900.63;1755165;82;21398;-84
2022/05/01 00:56:41;;;;;;;5.72;5.05;;;;;;;8.70;60.04;96900.30;1756132;82;20975;-85
2022/05/01 00:59:07;;;;;;;5.47;4.87;;;;;;;8.65;60.58;96894.30;1755971;82;21448;-85
2022/05/01 01:01:33;;;;;;;7.15;5.65;;;;;;;8.68;60.42;96903.05;1756221;82;21023;-85
2022/05/01 01:03:59;;;;;;;7.60;5.15;;;;;;;8.67;59.97;96907.09;1724065;82;22042;-84
2022/05/01 01:06:25;;;;;;;7.65;5.08;;;;;;;8.67;60.50;96905.80;1712682;83;21015;-85
2022/05/01 01:08:51;;;;;;;6.62;5.12;;;;;;;8.67;60.34;96903.21;1712661;83;21022;-84
2022/05/01 01:11:16;;;;;;;7.17;5.33;;;;;;;8.69;60.40;96905.16;1712657;83;21032;-85
2022/05/01 01:13:43;;;;;;;6.78;5.08;;;;;;;8.68;60.53;96904.34;1712698;84;20975;-85
2022/05/01 01:16:09;;;;;;;6.65;6.00;;;;;;;8.69;60.44;96896.90;1712614;83;20968;-84
2022/05/01 01:18:35;;;;;;;6.85;5.10;;;;;;;8.72;60.15;96897.88;1724109;82;21334;-85
2022/05/01 01:21:00;;;;;;;7.17;5.42;;;;;;;8.72;60.59;96897.88;1755797;82;20986;-84
2022/05/01 01:23:26;;;;;;;8.73;5.85;;;;;;;8.73;60.46;96893.50;1740499;82;21040;-84
2022/05/01 01:25:52;;;;;;;8.00;6.08;;;;;;;8.74;60.65;96887.35;1738282;81;21035;-85
2022/05/01 01:28:18;;;;;;;6.83;5.60;;;;;;;8.74;60.45;96888.64;1724810;82;21035;-85
2022/05/01 01:33:29;;;;;;;8.58;5.65;;;;;;;8.72;61.48;96880.22;1720837;83;21409;-85
2022/05/01 01:35:56;;;;;;;6.70;5.47;;;;;;;8.69;61.25;96880.55;1685787;85;21096;-86
2022/05/01 01:38:22;;;;;;;8.25;5.87;;;;;;;8.66;60.98;96876.50;1716769;82;21410;-84
2022/05/01 01:40:51;;;;;;;6.75;5.50;;;;;;;8.65;61.26;96879.25;1728888;80;21015;-85
2022/05/01 01:43:27;;;;;;;6.65;5.58;;;;;;;8.63;60.86;96879.41;1746512;82;20968;-85
2022/05/01 01:45:55;;;;;;;7.55;5.42;;;;;;;8.61;60.82;96877.43;1750526;82;20972;-85
2022/05/01 01:48:21;;;;;;;6.65;5.72;;;;;;;8.60;60.53;96873.70;1751545;82;21377;-84
2022/05/01 01:51:02;;;;;;;7.25;4.95;;;;;;;8.60;61.04;96880.18;1755765;82;20975;-85
2022/05/01 01:53:29;;;;;;;5.37;4.75;;;;;;;8.59;60.64;96875.97;1756028;82;21409;-84
2022/05/01 01:55:59;;;;;;;6.62;5.37;;;;;;;8.58;60.45;96873.05;1755946;82;20995;-85
2022/05/01 01:58:26;;;;;;;6.35;4.90;;;;;;;8.58;60.83;96872.56;1755891;82;20951;-85
2022/05/01 02:00:52;;;;;;;5.47;4.92;;;;;;;8.59;60.57;96874.67;1755922;82;20998;-85
2022/05/01 02:03:18;;;;;;;6.60;5.33;;;;;;;8.58;61.10;96872.56;1755969;82;21070;-84
2022/05/01 02:05:44;;;;;;;6.50;5.37;;;;;;;8.57;60.96;96868.36;1755876;82;21060;-85
2022/05/01 02:08:11;;;;;;;6.00;5.40;;;;;;;8.57;60.55;96877.91;1755828;82;20967;-85
2022/05/01 02:10:36;;;;;;;5.90;5.30;;;;;;;8.57;60.86;96876.13;1755908;82;21039;-85
2022/05/01 02:13:03;;;;;;;7.17;5.53;;;;;;;8.55;61.06;96877.26;1717032;82;21372;-84
2022/05/01 02:15:32;;;;;;;7.40;5.55;;;;;;;8.53;60.97;96876.61;1712795;84;20995;-84
2022/05/01 02:18:00;;;;;;;6.53;5.20;;;;;;;8.51;60.64;96882.43;1712625;83;21347;-85
2022/05/01 02:20:27;;;;;;;7.08;5.28;;;;;;;8.50;60.79;96876.44;1712552;84;21083;-85
2022/05/01 02:22:53;;;;;;;6.03;5.37;;;;;;;8.51;60.88;96874.66;1718002;82;21062;-85
2022/05/01 02:25:24;;;;;;;6.03;5.42;;;;;;;8.53;60.56;96880.48;1750317;82;21422;-85
2022/05/01 02:27:48;;;;;;;5.45;4.65;;;;;;;8.51;60.84;96876.77;1749278;82;21040;-85
2022/05/01 02:30:14;;;;;;;7.60;5.75;;;;;;;8.50;60.45;96879.52;1750423;82;21063;-85
2022/05/01 02:32:40;;;;;;;6.87;5.28;;;;;;;8.49;60.72;96883.08;1714721;84;20986;-85
2022/05/01 02:35:07;;;;;;;6.30;5.67;;;;;;;8.47;61.02;96881.13;1745678;82;20987;-85
2022/05/01 02:37:32;;;;;;;6.58;5.58;;;;;;;8.43;61.02;96876.23;1734193;83;21324;-84
2022/05/01 02:39:58;;;;;;;6.10;5.55;;;;;;;8.40;61.43;96875.26;1734178;83;20996;-85
2022/05/01 02:42:24;;;;;;;5.85;5.05;;;;;;;8.36;61.56;96874.44;1749466;82;21019;-84
2022/05/01 02:44:50;;;;;;;7.12;4.92;;;;;;;8.32;61.62;96880.39;1749349;82;20932;-85
2022/05/01 02:47:16;;;;;;;6.28;5.67;;;;;;;8.29;61.26;96881.16;1750651;82;21035;-84
2022/05/01 02:49:43;;;;;;;7.00;5.42;;;;;;;8.27;61.78;96878.72;1750551;82;20987;-85
2022/05/01 02:52:09;;;;;;;7.00;5.50;;;;;;;8.23;61.95;96870.95;1750509;82;21381;-85
2022/05/01 02:54:35;;;;;;;6.55;5.22;;;;;;;8.19;61.92;96874.01;1750442;82;21003;-85
2022/05/01 02:57:02;;;;;;;5.70;4.60;;;;;;;8.14;61.50;96871.89;1734948;82;20972;-85
2022/05/01 02:59:28;;;;;;;5.08;4.58;;;;;;;8.11;61.45;96870.39;1721203;82;21082;-84
2022/05/01 03:01:57;;;;;;;5.37;4.87;;;;;;;8.08;61.70;96869.90;1737968;82;21016;-85
2022/05/01 03:04:24;;;;;;;6.05;5.22;;;;;;;8.07;61.52;96874.75;1739879;82;20921;-84
2022/05/01 03:06:50;;;;;;;6.80;5.25;;;;;;;8.04;61.49;96862.94;1739899;82;20992;-85
2022/05/01 03:09:15;;;;;;;6.58;5.33;;;;;;;8.04;61.39;96866.81;1740039;82;21007;-84
2022/05/01 03:11:41;;;;;;;5.92;5.03;;;;;;;8.03;61.64;96870.85;1740030;82;21331;-85
2022/05/01 03:14:09;;;;;;;5.55;5.05;;;;;;;8.01;61.85;96868.42;1740065;82;21423;-85
2022/05/01 03:16:34;;;;;;;7.37;5.87;;;;;;;8.00;62.31;96871.16;1738299;81;20921;-85
2022/05/01 03:24:28;;;;;;;6.97;6.15;;;;;;;8.06;61.95;96866.66;1739103;80;21003;-84
2022/05/01 03:26:54;;;;;;;6.28;5.30;;;;;;;8.10;61.96;96870.06;1755906;82;20951;-84
2022/05/01 03:29:20;;;;;;;6.83;5.40;;;;;;;8.13;62.26;96867.65;1759165;81;21066;-84
2022/05/01 03:31:48;;;;;;;5.70;5.10;;;;;;;8.16;61.85;96866.08;1760402;81;21020;-84
2022/05/01 03:34:14;;;;;;;6.30;5.70;;;;;;;8.18;61.71;96865.44;1758587;82;20987;-84
2022/05/01 03:36:40;;;;;;;5.62;5.10;;;;;;;8.21;61.68;96862.53;1758360;82;21039;-84
2022/05/01 03:39:06;;;;;;;6.87;5.62;;;;;;;8.23;61.88;96864.48;1756776;80;20979;-85
2022/05/01 03:41:32;;;;;;;8.05;5.80;;;;;;;8.25;61.95;96862.53;1757660;80;21357;-85
2022/05/01 03:43:58;;;;;;;6.87;6.10;;;;;;;8.27;62.18;96868.37;1758493;81;20944;-84
2022/05/01 03:46:24;;;;;;;6.22;5.53;;;;;;;8.30;62.26;96869.37;1739827;81;21043;-84
2022/05/01 03:48:51;;;;;;;6.50;5.90;;;;;;;8.32;62.33;96872.62;1722163;83;21032;-85
2022/05/01 03:51:17;;;;;;;6.08;5.10;;;;;;;8.34;62.84;96866.83;1724705;82;21343;-85
2022/05/01 03:53:45;;;;;;;7.25;4.92;;;;;;;8.37;63.38;96868.29;1726818;83;20972;-84
2022/05/01 03:56:11;;;;;;;5.83;5.22;;;;;;;8.37;63.12;96865.22;1739326;81;21378;-84
2022/05/01 03:58:36;;;;;;;6.45;5.33;;;;;;;8.39;63.55;96862.47;1753129;81;20951;-85
2022/05/01 04:01:02;;;;;;;5.78;5.17;;;;;;;8.39;62.99;96858.59;1753205;81;21046;-84
2022/05/01 04:03:28;;;;;;;6.08;5.08;;;;;;;8.40;62.47;96862.80;1724611;82;21482;-85
2022/05/01 04:05:54;;;;;;;5.50;4.87;;;;;;;8.41;62.92;96860.05;1753271;81;21059;-84
2022/05/01 04:08:20;;;;;;;7.05;5.75;;;;;;;8.43;63.28;96859.41;1742825;81;21033;-84
2022/05/01 04:10:46;;;;;;;10.13;8.90;;;;;;;8.45;63.56;96867.02;1758519;82;21462;-84
2022/05/01 04:13:12;;;;;;;8.08;6.70;;;;;;;8.47;63.30;96865.11;1755224;80;21028;-85
2022/05/01 04:15:39;;;;;;;9.33;6.72;;;;;;;8.53;63.20;96867.54;1759489;81;21043;-84
2022/05/01 04:18:05;;;;;;;7.50;6.58;;;;;;;8.55;62.94;96862.52;1757078;81;22025;-84
2022/05/01 04:20:32;;;;;;;7.70;6.83;;;;;;;8.59;62.95;96866.91;1758672;82;20944;-84
2022/05/01 04:22:58;;;;;;;6.72;5.80;;;;;;;8.62;63.10;96874.36;1752479;82;21393;-85
2022/05/01 04:25:31;;;;;;;5.47;4.97;;;;;;;8.62;63.23;96872.61;1745316;82;21118;-85
2022/05/01 04:28:04;;;;;;;;;;;;;;;8.63;63.48;96870.34;1747977;82;21300;-85
2022/05/01 04:30:31;;;;;;;5.92;4.87;;;;;;;8.65;63.83;96875.36;1745543;82;20092;-84
2022/05/01 04:33:03;;;;;;;5.60;4.90;;;;;;;8.66;63.65;96876.98;1756923;81;21000;-85
2022/05/01 04:35:35;;;;;;;6.15;5.55;;;;;;;8.68;63.86;96878.44;1755478;82;20990;-84
2022/05/01 04:38:03;;;;;;;5.47;4.85;;;;;;;8.72;64.06;96875.05;1755648;82;21091;-84
2022/05/01 04:40:35;;;;;;;6.28;5.25;;;;;;;8.77;63.69;96874.56;1732748;80;21062;-84
2022/05/01 04:43:08;;;;;;;5.62;5.12;;;;;;;8.81;63.62;96873.30;1756225;80;21517;-84
2022/05/01 04:45:37;;;;;;;6.42;4.95;;;;;;;8.85;63.77;96879.30;1758593;81;20970;-85
2022/05/01 04:48:04;;;;;;;6.83;5.22;;;;;;;8.85;63.84;96872.81;1758640;82;21057;-85
2022/05/01 04:50:31;;;;;;;5.80;5.22;;;;;;;8.94;63.83;96876.22;1708800;82;21003;-83
2022/05/01 04:52:57;;;;;;;6.00;5.40;;;;;;;8.99;64.09;96872.20;1733335;81;21308;-82
2022/05/01 04:55:22;;;;;;;5.70;4.70;;;;;;;9.09;64.06;96875.11;1758320;81;20971;-82
2022/05/01 04:57:49;;;;;;;5.85;5.10;;;;;;;9.17;64.08;96881.13;1753440;81;20959;-82
2022/05/01 05:00:15;;;;;;;5.30;4.80;;;;;;;9.26;64.07;96878.85;1717120;83;21410;-82
2022/05/01 05:02:42;;;;;;;5.40;4.90;;;;;;;9.36;63.87;96883.89;1758236;81;21375;-82
2022/05/01 05:05:09;;;;;;;7.15;5.28;;;;;;;9.46;63.45;96885.86;1760746;81;21003;-82
2022/05/01 05:07:39;;;;;;;6.03;5.40;;;;;;;9.58;63.26;96883.72;1722354;83;21001;-82
2022/05/01 05:10:08;;;;;;;14.23;9.13;;;;;;;9.69;63.76;96880.80;1758338;82;21411;-82
2022/05/01 05:12:35;;;;;;;7.35;6.10;;;;;;;9.80;63.78;96882.27;1758641;82;21063;-82
2022/05/01 05:15:03;;;;;;;6.50;5.75;;;;;;;9.86;64.38;96884.19;1729162;81;20971;-82
2022/05/01 05:17:32;;;;;;;6.85;5.78;;;;;;;9.93;65.01;96884.68;1744775;82;20979;-82
2022/05/01 05:19:58;;;;;;;6.47;5.58;;;;;;;10.01;65.43;96884.33;1758964;82;21496;-83
2022/05/01 05:22:24;;;;;;;7.75;5.70;;;;;;;10.09;65.21;96886.44;1757915;81;20940;-82
2022/05/01 05:24:49;;;;;;;6.87;5.30;;;;;;;10.19;64.09;96883.14;1758746;81;20971;-82
2022/05/01 05:27:15;;;;;;;6.05;5.03;;;;;;;10.31;63.86;96886.72;1758309;81;20991;-82
2022/05/01 05:29:41;;;;;;;5.53;4.70;;;;;;;10.40;63.80;96889.59;1753962;81;21059;-82
2022/05/01 05:32:07;;;;;;;6.10;5.47;;;;;;;10.49;64.15;96892.00;1755921;81;21948;-82
2022/05/01 05:34:33;;;;;;;5.72;5.12;;;;;;;10.58;64.46;96895.88;1755800;82;20984;-82
2022/05/01 05:36:58;;;;;;;8.35;5.83;;;;;;;10.67;64.95;96899.56;1748850;82;20975;-82
2022/05/01 05:39:24;;;;;;;6.72;6.12;;;;;;;10.77;65.16;96892.38;1748891;82;21003;-82
2022/05/01 05:41:51;;;;;;;6.83;6.12;;;;;;;10.86;65.12;96896.22;1723478;82;21385;-82
2022/05/01 05:44:17;;;;;;;8.08;7.03;;;;;;;10.95;65.52;96897.80;1704002;84;20991;-82
2022/05/01 05:46:42;;;;;;;38.75;17.40;;;;;;;11.04;66.36;96905.86;1737247;82;20983;-82
2022/05/01 05:49:08;;;;;;;27.65;13.65;;;;;;;11.11;66.24;96910.72;1746048;81;21430;-82
2022/05/01 05:51:35;;;;;;;15.53;10.80;;;;;;;11.20;65.82;96910.97;1747703;82;20940;-83
2022/05/01 05:54:01;;;;;;;13.62;10.35;;;;;;;11.30;64.76;96911.56;1729561;82;21321;-82
2022/05/01 05:56:26;;;;;;;17.40;11.38;;;;;;;11.45;64.45;96912.11;1726270;83;20959;-82
2022/05/01 05:58:52;;;;;;;16.97;10.72;;;;;;;11.59;63.35;96918.67;1726178;82;20974;-82
2022/05/01 06:01:18;;;;;;;28.30;14.78;;;;;;;11.68;61.87;96918.91;1725474;82;21051;-82
2022/05/01 06:03:43;;;;;;;30.82;17.57;;;;;;;11.74;61.98;96913.52;1734690;82;21023;-83
2022/05/01 06:06:09;;;;;;;31.20;16.82;;;;;;;11.81;62.91;96911.84;1735119;82;21259;-82
2022/05/01 06:08:35;;;;;;;18.37;13.03;;;;;;;11.91;63.22;96912.91;1748720;82;20970;-82
2022/05/01 06:11:02;;;;;;;13.30;10.78;;;;;;;11.98;63.22;96910.71;1735001;82;21021;-83
2022/05/01 06:13:27;;;;;;;14.30;10.25;;;;;;;12.07;61.02;96909.34;1728158;81;21028;-83
2022/05/01 06:15:53;;;;;;;12.60;10.58;;;;;;;12.16;61.29;96912.17;1738850;82;21031;-82
2022/05/01 06:18:19;;;;;;;12.68;9.95;;;;;;;12.27;61.03;96915.64;1748557;82;20995;-82
2022/05/01 06:20:45;;;;;;;12.18;9.80;;;;;;;12.38;62.31;96910.00;1748692;82;20952;-82
2022/05/01 06:23:10;;;;;;;11.55;9.75;;;;;;;12.45;60.14;96910.88;1748586;82;20947;-82
2022/05/01 06:25:38;;;;;;;11.48;10.25;;;;;;;12.51;60.39;96911.45;1748354;82;21342;-82
2022/05/01 06:28:05;;;;;;;14.13;11.18;;;;;;;12.57;60.69;96918.56;1743302;81;21111;-83
2022/05/01 06:30:32;;;;;;;17.05;11.63;;;;;;;12.63;61.18;96923.55;1732279;82;21050;-82
2022/05/01 06:32:57;;;;;;;13.45;10.93;;;;;;;12.71;61.29;96924.77;1715952;82;20987;-82
2022/05/01 06:35:24;;;;;;;14.47;12.65;;;;;;;12.79;61.36;96922.04;1710970;83;21016;-82
2022/05/01 06:37:50;;;;;;;15.90;11.70;;;;;;;12.83;60.40;96916.77;1719442;83;20993;-82
2022/05/01 06:40:16;;;;;;;13.75;11.43;;;;;;;12.87;60.56;96918.04;1725326;82;20969;-82
2022/05/01 06:42:42;;;;;;;20.77;17.75;;;;;;;12.85;59.14;96918.72;1723789;82;21303;-83
2022/05/01 06:45:08;;;;;;;14.75;12.70;;;;;;;12.82;59.70;96916.45;1722776;82;20957;-82
2022/05/01 06:47:34;;;;;;;13.28;11.88;;;;;;;12.82;58.50;96918.25;1718452;83;20948;-82
2022/05/01 06:50:00;;;;;;;11.55;10.32;;;;;;;12.84;57.83;96918.38;1728455;82;21434;-82
2022/05/01 06:52:26;;;;;;;11.85;10.50;;;;;;;12.90;56.99;96911.16;1728114;82;20975;-82
2022/05/01 06:54:52;;;;;;;13.60;9.68;;;;;;;12.99;57.09;96908.42;1727213;82;20944;-83
2022/05/01 06:57:18;;;;;;;11.40;8.90;;;;;;;13.10;56.38;96913.97;1726028;82;20983;-83
2022/05/01 06:59:44;;;;;;;12.65;9.83;;;;;;;13.23;56.07;96908.63;1730103;82;21362;-85
2022/05/01 07:02:10;;;;;;;11.22;9.25;;;;;;;13.31;56.59;96911.91;1725560;82;21422;-84
2022/05/01 07:04:36;;;;;;;11.73;9.43;;;;;;;13.39;55.46;96913.61;1729238;82;21090;-84
2022/05/01 07:07:02;;;;;;;11.73;10.40;;;;;;;13.48;55.05;96913.28;1729396;83;21321;-83
2022/05/01 07:09:28;;;;;;;10.48;9.38;;;;;;;13.57;53.53;96911.86;1720968;82;21132;-83
2022/05/01 07:11:54;;;;;;;11.08;9.73;;;;;;;13.66;53.89;96910.22;1731070;83;21503;-83
2022/05/01 07:14:20;;;;;;;10.90;8.35;;;;;;;13.77;53.96;96907.11;1729875;83;21098;-83
2022/05/01 07:16:47;;;;;;;9.13;8.15;;;;;;;13.86;52.97;96909.59;1730660;83;20994;-86
2022/05/01 07:19:14;;;;;;;10.45;8.63;;;;;;;14.00;53.46;96908.20;1730203;83;21017;-84
2022/05/01 07:21:40;;;;;;;10.72;8.10;;;;;;;14.16;52.74;96914.14;1730099;83;21034;-84
2022/05/01 07:24:06;;;;;;;8.25;7.40;;;;;;;14.29;52.43;96916.32;1729376;83;21015;-84
2022/05/01 07:26:35;;;;;;;9.68;7.87;;;;;;;14.41;51.51;96914.80;1729982;83;21396;-87
2022/05/01 07:29:03;;;;;;;8.73;7.90;;;;;;;14.51;52.08;96911.06;1701805;82;21290;-84
2022/05/01 07:31:29;;;;;;;8.75;7.85;;;;;;;14.62;50.22;96915.73;1753416;81;21433;-83
2022/05/01 07:33:57;;;;;;;10.32;8.73;;;;;;;14.69;49.61;96915.27;1755246;81;21023;-83
2022/05/01 07:36:23;;;;;;;12.58;9.78;;;;;;;14.78;50.15;96915.40;1757613;81;21480;-83
2022/05/01 07:38:50;;;;;;;11.83;10.08;;;;;;;14.88;51.06;96913.74;1741549;81;20998;-83
2022/05/01 07:41:19;;;;;;;11.57;10.48;;;;;;;14.96;50.71;96913.55;1752423;81;21343;-83
2022/05/01 07:43:46;;;;;;;14.15;11.93;;;;;;;15.05;50.42;96916.31;1728704;81;21078;-83
2022/05/01 07:46:12;;;;;;;12.75;10.82;;;;;;;15.13;50.98;96912.70;1739610;82;21032;-83
2022/05/01 07:48:37;;;;;;;11.70;10.50;;;;;;;15.18;49.44;96915.56;1733137;81;21388;-83
2022/05/01 07:51:03;;;;;;;11.03;9.88;;;;;;;15.21;49.39;96906.80;1729026;81;20962;-83
2022/05/01 07:53:29;;;;;;;11.78;10.53;;;;;;;15.24;49.31;96908.21;1738467;81;21064;-83
2022/05/01 07:55:58;;;;;;;14.00;11.85;;;;;;;15.26;49.25;96914.86;1745440;81;22318;-83
2022/05/01 07:58:23;;;;;;;13.68;11.50;;;;;;;15.28;49.49;96908.92;1760537;81;20991;-83
2022/05/01 08:00:49;;;;;;;13.68;11.48;;;;;;;15.27;49.34;96911.23;1756152;82;21000;-83
2022/05/01 08:06:00;;;;;;;11.25;10.05;;;;;;;15.47;50.54;96909.98;1757791;81;20999;-83
2022/05/01 08:08:26;;;;;;;12.20;9.75;;;;;;;15.61;49.91;96912.93;1747869;81;20989;-83
2022/05/01 08:10:52;;;;;;;11.75;10.55;;;;;;;15.68;49.84;96909.53;1727208;83;20974;-83
2022/05/01 08:13:18;;;;;;;10.93;8.78;;;;;;;15.73;49.44;96905.29;1728149;83;21061;-83
2022/05/01 08:15:43;;;;;;;12.45;10.48;;;;;;;15.84;49.25;96902.58;1728458;83;21413;-83
2022/05/01 08:21:08;;;;;;;13.05;11.05;;;;;;;16.03;49.85;96894.40;1741291;81;21028;-83
2022/05/01 08:23:37;;;;;;;12.13;10.88;;;;;;;16.18;50.72;96891.06;1739627;82;20968;-83
2022/05/01 08:26:04;;;;;;;12.82;10.80;;;;;;;16.38;50.25;96893.13;1739261;82;21055;-83
2022/05/01 08:28:31;;;;;;;13.70;11.35;;;;;;;16.48;49.41;96890.89;1739676;82;21390;-83
2022/05/01 08:30:57;;;;;;;12.35;11.00;;;;;;;16.63;48.72;96896.41;1735852;82;21047;-83
2022/05/01 08:33:22;;;;;;;16.77;12.35;;;;;;;16.64;48.84;96895.39;1750733;82;21076;-83
2022/05/01 08:35:49;;;;;;;13.68;12.20;;;;;;;16.45;48.08;96891.81;1750611;82;21453;-83
2022/05/01 08:38:15;;;;;;;13.90;12.50;;;;;;;16.27;49.20;96896.40;1750658;82;20976;-83
2022/05/01 08:40:40;;;;;;;18.40;13.05;;;;;;;16.25;50.08;96893.66;1751003;82;21092;-83
2022/05/01 08:43:06;;;;;;;15.85;14.10;;;;;;;16.11;48.81;96889.77;1750036;82;21453;-83
2022/05/01 08:46:05;;;;;;;16.93;14.65;;;;;;;15.90;49.08;96899.14;1750646;82;20999;-83
2022/05/01 08:49:01;;;;;;;17.48;14.05;;;;;;;15.77;49.62;96901.25;1750769;82;21377;-83
2022/05/01 08:51:33;;;;;;;16.87;14.65;;;;;;;15.72;50.32;96901.56;1750597;82;21370;-83
2022/05/01 08:54:00;;;;;;;16.37;14.43;;;;;;;15.71;50.73;96903.88;1750650;82;21016;-83
2022/05/01 08:56:26;;;;;;;15.35;13.75;;;;;;;15.70;51.54;96903.58;1729727;82;20988;-83
2022/05/01 08:58:52;;;;;;;17.60;15.48;;;;;;;15.68;50.78;96899.05;1750647;82;21065;-83
2022/05/01 09:01:18;;;;;;;21.70;15.55;;;;;;;15.66;51.32;96898.45;1750501;82;21501;-83
2022/05/01 09:03:44;;;;;;;19.57;15.72;;;;;;;15.59;51.53;96901.85;1750723;82;20980;-83
2022/05/01 09:06:11;;;;;;;17.67;15.03;;;;;;;15.58;51.25;96895.47;1750520;82;21103;-83
2022/05/01 09:08:40;;;;;;;16.95;15.18;;;;;;;15.59;50.87;96896.61;1750642;82;20973;-83
2022/05/01 09:13:38;;;;;;;16.00;14.30;;;;;;;15.68;52.17;96896.43;1716975;83;21043;-83
2022/05/01 09:16:11;;;;;;;17.20;14.50;;;;;;;15.67;51.43;96894.82;1750661;82;21323;-83
2022/05/01 09:18:45;;;;;;;17.62;14.60;;;;;;;15.67;51.62;96898.75;1750575;82;20968;-83
2022/05/01 09:21:11;;;;;;;17.20;14.83;;;;;;;15.66;51.65;96901.06;1750682;82;20944;-83
2022/05/01 09:23:43;;;;;;;16.20;14.45;;;;;;;15.66;51.86;96895.33;1750788;82;21063;-83
2022/05/01 09:26:11;;;;;;;15.80;13.20;;;;;;;15.70;52.43;96893.91;1750769;82;21023;-83
2022/05/01 09:28:37;;;;;;;14.80;12.55;;;;;;;15.78;52.27;96887.64;1750768;82;21370;-83
2022/05/01 09:31:04;;;;;;;12.25;10.95;;;;;;;15.83;51.56;96887.36;1750410;82;21031;-83
2022/05/01 09:33:30;;;;;;;12.18;9.60;;;;;;;15.87;50.31;96886.45;1750607;82;21126;-83
2022/05/01 09:35:55;;;;;;;12.05;10.85;;;;;;;15.89;49.34;96885.23;1750585;82;21070;-83
2022/05/01 09:38:27;;;;;;;16.93;11.75;;;;;;;15.95;49.16;96881.52;1750539;82;21433;-83
2022/05/01 09:40:56;;;;;;;13.20;9.53;;;;;;;15.95;49.03;96877.08;1750800;82;21008;-83
2022/05/01 09:43:41;;;;;;;10.18;9.13;;;;;;;15.96;49.87;96876.58;1750616;82;21011;-83
2022/05/01 09:46:23;;;;;;;12.45;9.65;;;;;;;16.00;49.25;96871.22;1750675;82;21490;-83
2022/05/01 09:49:17;;;;;;;12.80;9.63;;;;;;;16.01;48.77;96869.70;1751086;82;21023;-83
2022/05/01 09:51:57;;;;;;;10.75;8.98;;;;;;;16.04;49.26;96870.61;1714175;83;20999;-83
2022/05/01 09:54:24;;;;;;;11.75;9.85;;;;;;;16.09;49.64;96868.16;1744286;82;20971;-83
2022/05/01 09:56:57;;;;;;;9.90;8.88;;;;;;;16.15;49.87;96867.37;1752813;82;21051;-83
2022/05/01 09:59:24;;;;;;;11.38;9.08;;;;;;;16.26;50.41;96866.42;1750501;82;20944;-83
2022/05/01 10:02:02;;;;;;;10.20;8.35;;;;;;;16.30;48.76;96861.09;1750404;82;21094;-83
2022/05/01 10:04:34;;;;;;;8.18;7.20;;;;;;;16.32;49.35;96861.69;1748689;81;21054;-83
2022/05/01 10:07:00;;;;;;;8.80;7.80;;;;;;;16.38;49.35;96862.16;1754338;81;21034;-83
2022/05/01 10:09:31;;;;;;;8.28;7.35;;;;;;;16.49;48.64;96864.96;1755594;81;20958;-83
2022/05/01 10:11:59;;;;;;;9.23;8.05;;;;;;;16.58;48.01;96864.20;1753993;81;21014;-83
2022/05/01 10:14:26;;;;;;;8.88;7.97;;;;;;;16.56;47.33;96857.56;1753189;80;21018;-83
2022/05/01 10:16:54;;;;;;;9.33;7.78;;;;;;;16.57;47.24;96861.29;1750208;81;20960;-83
2022/05/01 10:19:23;;;;;;;10.68;8.23;;;;;;;16.60;47.49;96856.96;1753909;81;21035;-83
2022/05/01 10:21:53;;;;;;;9.43;8.43;;;;;;;16.68;48.01;96858.05;1753837;81;21007;-83
2022/05/01 10:24:19;;;;;;;9.40;8.50;;;;;;;16.77;48.58;96856.81;1742441;81;21051;-83
2022/05/01 10:26:58;;;;;;;9.38;7.50;;;;;;;16.89;49.16;96856.14;1752870;82;21312;-83
2022/05/01 10:33:00;;;;;;;13.10;10.78;;;;;;;16.99;47.04;96857.81;1743065;81;21082;-83
2022/05/01 10:36:02;;;;;;;12.40;9.40;;;;;;;17.01;48.56;96855.78;1750650;81;20975;-82
2022/05/01 10:38:47;;;;;;;11.48;10.25;;;;;;;17.04;48.67;96850.91;1752473;81;20987;-83
2022/05/01 10:41:13;;;;;;;10.80;9.58;;;;;;;17.08;48.35;96846.87;1752740;81;20996;-83
2022/05/01 10:43:39;;;;;;;10.63;8.85;;;;;;;17.19;48.99;96845.87;1727357;81;20994;-83
2022/05/01 10:46:26;;;;;;;11.88;9.93;;;;;;;17.34;48.85;96849.02;1740310;81;21072;-83
2022/05/01 10:48:55;;;;;;;20.02;14.23;;;;;;;17.52;48.78;96843.02;1733233;82;21048;-82
2022/05/01 10:51:39;;;;;;;15.93;12.70;;;;;;;17.66;48.64;96843.22;1732308;82;21326;-83
2022/05/01 10:54:19;;;;;;;12.25;8.43;;;;;;;17.77;48.74;96833.86;1735067;81;20925;-83
2022/05/01 10:56:49;;;;;;;13.80;11.83;;;;;;;17.79;47.05;96831.82;1747545;81;20955;-82
2022/05/01 10:59:38;;;;;;;12.68;10.50;;;;;;;17.84;48.00;96835.40;1749848;81;21303;-83
2022/05/01 11:02:20;;;;;;;22.07;15.15;;;;;;;17.85;48.09;96833.06;1739260;82;21019;-83
2022/05/01 11:04:46;;;;;;;40.38;26.02;;;;;;;17.87;47.63;96834.96;1736244;81;21364;-82
2022/05/01 11:07:17;;;;;;;14.87;12.00;;;;;;;18.00;45.57;96837.47;1734986;82;20969;-82
2022/05/01 11:09:45;;;;;;;8.58;7.67;;;;;;;18.13;45.04;96837.86;1734209;82;21324;-82
2022/05/01 11:12:12;;;;;;;11.10;8.30;;;;;;;18.23;43.87;96836.85;1741991;81;20928;-82
2022/05/01 11:15:08;;;;;;;9.08;6.95;;;;;;;18.15;44.09;96833.69;1754455;81;20979;-82
2022/05/01 11:17:44;;;;;;;8.78;6.47;;;;;;;18.20;44.16;96833.83;1726806;81;20960;-83
2022/05/01 11:20:24;;;;;;;6.47;4.83;;;;;;;18.54;44.06;96834.55;1712548;83;21030;-83
2022/05/01 11:22:50;;;;;;;7.17;5.15;;;;;;;18.87;42.40;96834.69;1738854;81;20983;-82
2022/05/01 11:25:20;;;;;;;4.70;4.30;;;;;;;19.07;42.17;96827.85;1747467;80;21034;-83
2022/05/01 11:27:50;;;;;;;4.87;4.47;;;;;;;19.25;40.41;96825.16;1752971;82;20955;-83
2022/05/01 11:30:32;;;;;;;6.62;4.37;;;;;;;19.37;39.91;96822.55;1742718;81;21012;-82
2022/05/01 11:33:10;;;;;;;5.10;4.60;;;;;;;19.53;40.28;96824.53;1749430;81;21080;-82
2022/05/01 11:36:02;;;;;;;4.85;3.50;;;;;;;19.55;39.82;96823.02;1726254;81;21011;-84
2022/05/01 11:38:48;;;;;;;3.95;3.55;;;;;;;19.58;37.35;96826.51;1711134;82;20925;-83
2022/05/01 11:41:15;;;;;;;5.87;4.12;;;;;;;19.45;36.88;96823.02;1695253;84;21032;-85
2022/05/01 11:43:41;;;;;;;5.10;3.95;;;;;;;19.33;39.20;96827.45;1723261;83;20960;-84
2022/05/01 11:46:17;;;;;;;11.38;8.10;;;;;;;19.28;38.42;96830.48;1760149;81;21305;-84
2022/05/01 11:48:42;;;;;;;10.32;8.13;;;;;;;19.15;38.10;96827.01;1746451;81;20948;-84
2022/05/01 11:51:08;;;;;;;8.70;5.67;;;;;;;19.04;38.06;96826.48;1731488;81;20998;-83
2022/05/01 11:53:34;;;;;;;4.87;4.15;;;;;;;18.93;38.10;96825.91;1750780;81;21377;-86
2022/05/01 12:04:33;;;;;;;42.38;30.68;;;;;;;18.39;39.07;96833.34;1741798;80;21023;-87
2022/05/01 12:07:20;;;;;;;41.45;33.13;;;;;;;18.24;39.73;96826.62;1752589;81;21398;-85
2022/05/01 12:09:47;;;;;;;9.75;8.75;;;;;;;18.10;40.40;96828.30;1755051;81;21027;-84
2022/05/01 12:12:16;;;;;;;11.12;8.43;;;;;;;17.97;39.64;96820.82;1751339;81;21051;-85